sensor_id;sensor_type;location;lat;lon;timestamp;P1;durP1;ratioP1;P2;durP2;ratioP2
357;SDS011;167;47.558;7.602;2023-02-11T00:01:53;21.40;;;16.70;;
357;SDS011;167;47.558;7.602;2023-02-11T00:04:18;22.73;;;18.20;;
357;SDS011;167;47.558;7.602;2023-02-11T00:06:44;20.30;;;16.40;;
357;SDS011;167;47.558;7.602;2023-02-11T00:09:10;24.70;;;18.23;;
357;SDS011;167;47.558;7.602;2023-02-11T00:11:36;22.30;;;18.20;;
357;SDS011;167;47.558;7.602;2023-02-11T00:14:03;23.73;;;16.70;;
357;SDS011;167;47.558;7.602;2023-02-11T00:16:29;22.03;;;18.00;;
357;SDS011;167;47.558;7.602;2023-02-11T00:18:57;26.23;;;19.13;;
357;SDS011;167;47.558;7.602;2023-02-11T00:21:24;24.60;;;17.70;;
357;SDS011;167;47.558;7.602;2023-02-11T00:23:50;24.40;;;18.60;;
357;SDS011;167;47.558;7.602;2023-02-11T00:26:20;24.93;;;18.70;;
357;SDS011;167;47.558;7.602;2023-02-11T00:28:47;30.37;;;20.40;;
357;SDS011;167;47.558;7.602;2023-02-11T00:31:15;24.87;;;19.47;;
357;SDS011;167;47.558;7.602;2023-02-11T00:33:41;20.13;;;15.97;;
357;SDS011;167;47.558;7.602;2023-02-11T00:36:08;23.07;;;17.10;;
357;SDS011;167;47.558;7.602;2023-02-11T00:38:34;23.37;;;17.17;;
357;SDS011;167;47.558;7.602;2023-02-11T00:41:00;20.30;;;17.70;;
357;SDS011;167;47.558;7.602;2023-02-11T00:43:26;24.17;;;17.90;;
357;SDS011;167;47.558;7.602;2023-02-11T00:45:52;24.50;;;18.77;;
357;SDS011;167;47.558;7.602;2023-02-11T00:48:18;20.57;;;16.53;;
357;SDS011;167;47.558;7.602;2023-02-11T00:50:44;22.70;;;17.67;;
357;SDS011;167;47.558;7.602;2023-02-11T00:53:10;20.93;;;16.73;;
357;SDS011;167;47.558;7.602;2023-02-11T00:55:36;17.67;;;15.60;;
357;SDS011;167;47.558;7.602;2023-02-11T00:58:02;19.80;;;17.47;;
357;SDS011;167;47.558;7.602;2023-02-11T01:00:28;21.33;;;17.40;;
357;SDS011;167;47.558;7.602;2023-02-11T01:02:54;21.70;;;18.17;;
357;SDS011;167;47.558;7.602;2023-02-11T01:05:20;23.87;;;15.90;;
357;SDS011;167;47.558;7.602;2023-02-11T01:07:46;23.50;;;19.87;;
357;SDS011;167;47.558;7.602;2023-02-11T01:10:12;21.47;;;17.47;;
357;SDS011;167;47.558;7.602;2023-02-11T01:12:38;21.93;;;17.43;;
357;SDS011;167;47.558;7.602;2023-02-11T01:15:05;18.17;;;15.63;;
357;SDS011;167;47.558;7.602;2023-02-11T01:17:31;22.87;;;18.23;;
357;SDS011;167;47.558;7.602;2023-02-11T01:19:58;20.57;;;16.87;;
357;SDS011;167;47.558;7.602;2023-02-11T01:22:24;20.13;;;15.67;;
357;SDS011;167;47.558;7.602;2023-02-11T01:24:50;19.37;;;15.60;;
357;SDS011;167;47.558;7.602;2023-02-11T01:27:16;20.43;;;18.23;;
357;SDS011;167;47.558;7.602;2023-02-11T01:29:42;25.47;;;16.90;;
357;SDS011;167;47.558;7.602;2023-02-11T01:32:08;18.50;;;15.77;;
357;SDS011;167;47.558;7.602;2023-02-11T01:34:34;21.37;;;16.77;;
357;SDS011;167;47.558;7.602;2023-02-11T01:37:00;21.77;;;16.57;;
357;SDS011;167;47.558;7.602;2023-02-11T01:39:26;24.07;;;17.73;;
357;SDS011;167;47.558;7.602;2023-02-11T01:41:52;21.30;;;19.07;;
357;SDS011;167;47.558;7.602;2023-02-11T01:46:47;19.47;;;16.93;;
357;SDS011;167;47.558;7.602;2023-02-11T01:49:26;22.57;;;17.10;;
357;SDS011;167;47.558;7.602;2023-02-11T01:52:00;16.80;;;15.00;;
357;SDS011;167;47.558;7.602;2023-02-11T01:54:28;19.63;;;17.50;;
357;SDS011;167;47.558;7.602;2023-02-11T01:57:14;20.80;;;16.03;;
357;SDS011;167;47.558;7.602;2023-02-11T01:59:51;20.17;;;17.07;;
357;SDS011;167;47.558;7.602;2023-02-11T02:02:20;19.67;;;16.53;;
357;SDS011;167;47.558;7.602;2023-02-11T02:05:18;21.00;;;17.60;;
357;SDS011;167;47.558;7.602;2023-02-11T02:07:36;21.70;;;16.73;;
357;SDS011;167;47.558;7.602;2023-02-11T02:10:06;25.53;;;18.07;;
357;SDS011;167;47.558;7.602;2023-02-11T02:12:34;22.57;;;17.47;;
357;SDS011;167;47.558;7.602;2023-02-11T02:17:50;18.40;;;16.13;;
357;SDS011;167;47.558;7.602;2023-02-11T02:20:24;23.67;;;19.33;;
357;SDS011;167;47.558;7.602;2023-02-11T02:23:04;18.40;;;16.50;;
357;SDS011;167;47.558;7.602;2023-02-11T02:28:33;22.77;;;17.80;;
357;SDS011;167;47.558;7.602;2023-02-11T02:31:09;22.13;;;17.60;;
357;SDS011;167;47.558;7.602;2023-02-11T02:33:40;21.80;;;17.30;;
357;SDS011;167;47.558;7.602;2023-02-11T02:36:41;20.53;;;17.93;;
357;SDS011;167;47.558;7.602;2023-02-11T02:39:00;21.93;;;19.50;;
357;SDS011;167;47.558;7.602;2023-02-11T02:41:31;19.60;;;16.33;;
357;SDS011;167;47.558;7.602;2023-02-11T02:43:58;20.43;;;17.17;;
357;SDS011;167;47.558;7.602;2023-02-11T02:46:25;28.70;;;18.37;;
357;SDS011;167;47.558;7.602;2023-02-11T02:48:52;20.70;;;17.93;;
357;SDS011;167;47.558;7.602;2023-02-11T03:07:29;20.83;;;15.37;;
357;SDS011;167;47.558;7.602;2023-02-11T03:10:15;23.67;;;17.10;;
357;SDS011;167;47.558;7.602;2023-02-11T03:12:43;24.00;;;16.70;;
357;SDS011;167;47.558;7.602;2023-02-11T03:15:09;21.47;;;16.90;;
357;SDS011;167;47.558;7.602;2023-02-11T03:17:37;19.43;;;16.30;;
357;SDS011;167;47.558;7.602;2023-02-11T03:20:04;21.27;;;14.90;;
357;SDS011;167;47.558;7.602;2023-02-11T03:22:32;19.43;;;16.03;;
357;SDS011;167;47.558;7.602;2023-02-11T03:24:59;28.50;;;17.33;;
357;SDS011;167;47.558;7.602;2023-02-11T03:27:28;21.40;;;17.60;;
357;SDS011;167;47.558;7.602;2023-02-11T03:29:59;21.50;;;17.10;;
357;SDS011;167;47.558;7.602;2023-02-11T03:39:58;18.90;;;16.90;;
357;SDS011;167;47.558;7.602;2023-02-11T03:42:25;21.60;;;16.40;;
357;SDS011;167;47.558;7.602;2023-02-11T03:44:52;21.87;;;18.27;;
357;SDS011;167;47.558;7.602;2023-02-11T03:47:22;24.60;;;18.20;;
357;SDS011;167;47.558;7.602;2023-02-11T03:49:50;17.93;;;16.10;;
357;SDS011;167;47.558;7.602;2023-02-11T03:52:18;20.67;;;17.73;;
357;SDS011;167;47.558;7.602;2023-02-11T03:54:45;21.47;;;16.43;;
357;SDS011;167;47.558;7.602;2023-02-11T03:57:13;20.73;;;16.57;;
357;SDS011;167;47.558;7.602;2023-02-11T03:59:55;22.93;;;16.00;;
357;SDS011;167;47.558;7.602;2023-02-11T04:02:22;18.37;;;15.80;;
357;SDS011;167;47.558;7.602;2023-02-11T04:04:49;21.43;;;17.33;;
357;SDS011;167;47.558;7.602;2023-02-11T04:07:15;18.87;;;16.50;;
357;SDS011;167;47.558;7.602;2023-02-11T04:09:41;19.53;;;17.53;;
357;SDS011;167;47.558;7.602;2023-02-11T04:12:07;24.43;;;19.23;;
357;SDS011;167;47.558;7.602;2023-02-11T04:14:33;29.17;;;18.07;;
357;SDS011;167;47.558;7.602;2023-02-11T04:16:59;22.70;;;16.20;;
357;SDS011;167;47.558;7.602;2023-02-11T04:19:25;26.00;;;17.27;;
357;SDS011;167;47.558;7.602;2023-02-11T04:21:51;19.43;;;16.37;;
357;SDS011;167;47.558;7.602;2023-02-11T04:24:17;20.17;;;17.00;;
357;SDS011;167;47.558;7.602;2023-02-11T04:26:43;18.57;;;15.40;;
357;SDS011;167;47.558;7.602;2023-02-11T04:29:09;21.97;;;17.17;;
357;SDS011;167;47.558;7.602;2023-02-11T04:31:35;22.90;;;17.10;;
357;SDS011;167;47.558;7.602;2023-02-11T04:34:01;21.80;;;17.80;;
357;SDS011;167;47.558;7.602;2023-02-11T04:36:27;23.20;;;17.97;;
357;SDS011;167;47.558;7.602;2023-02-11T04:38:53;20.77;;;16.83;;
357;SDS011;167;47.558;7.602;2023-02-11T04:41:19;17.83;;;15.60;;
357;SDS011;167;47.558;7.602;2023-02-11T04:43:45;19.60;;;15.47;;
357;SDS011;167;47.558;7.602;2023-02-11T04:46:11;23.07;;;18.57;;
357;SDS011;167;47.558;7.602;2023-02-11T04:48:37;21.87;;;17.00;;
357;SDS011;167;47.558;7.602;2023-02-11T04:51:03;17.90;;;15.83;;
357;SDS011;167;47.558;7.602;2023-02-11T04:53:29;21.10;;;17.47;;
357;SDS011;167;47.558;7.602;2023-02-11T04:55:55;20.00;;;17.13;;
357;SDS011;167;47.558;7.602;2023-02-11T04:58:21;22.23;;;17.63;;
357;SDS011;167;47.558;7.602;2023-02-11T05:00:48;20.63;;;16.73;;
357;SDS011;167;47.558;7.602;2023-02-11T05:03:14;23.13;;;18.03;;
357;SDS011;167;47.558;7.602;2023-02-11T05:05:40;16.60;;;15.00;;
357;SDS011;167;47.558;7.602;2023-02-11T05:08:07;22.80;;;16.47;;
357;SDS011;167;47.558;7.602;2023-02-11T05:10:33;23.87;;;17.70;;
357;SDS011;167;47.558;7.602;2023-02-11T05:12:59;22.33;;;15.90;;
357;SDS011;167;47.558;7.602;2023-02-11T05:15:25;18.60;;;16.03;;
357;SDS011;167;47.558;7.602;2023-02-11T05:17:52;21.67;;;16.77;;
357;SDS011;167;47.558;7.602;2023-02-11T05:20:18;19.87;;;17.20;;
357;SDS011;167;47.558;7.602;2023-02-11T05:22:44;21.27;;;15.63;;
357;SDS011;167;47.558;7.602;2023-02-11T05:25:10;17.87;;;15.97;;
357;SDS011;167;47.558;7.602;2023-02-11T05:27:36;19.80;;;16.37;;
357;SDS011;167;47.558;7.602;2023-02-11T05:30:02;22.60;;;16.43;;
357;SDS011;167;47.558;7.602;2023-02-11T05:32:28;18.20;;;14.53;;
357;SDS011;167;47.558;7.602;2023-02-11T05:34:54;21.17;;;16.77;;
357;SDS011;167;47.558;7.602;2023-02-11T05:37:20;20.80;;;15.77;;
357;SDS011;167;47.558;7.602;2023-02-11T05:39:46;23.80;;;17.03;;
357;SDS011;167;47.558;7.602;2023-02-11T05:42:12;17.73;;;15.97;;
357;SDS011;167;47.558;7.602;2023-02-11T05:44:38;18.97;;;16.90;;
357;SDS011;167;47.558;7.602;2023-02-11T05:47:04;21.17;;;16.73;;
357;SDS011;167;47.558;7.602;2023-02-11T05:49:32;19.90;;;16.90;;
357;SDS011;167;47.558;7.602;2023-02-11T05:51:59;19.17;;;15.93;;
357;SDS011;167;47.558;7.602;2023-02-11T05:54:25;18.03;;;16.10;;
357;SDS011;167;47.558;7.602;2023-02-11T05:56:50;18.90;;;15.67;;
357;SDS011;167;47.558;7.602;2023-02-11T05:59:16;20.20;;;16.37;;
357;SDS011;167;47.558;7.602;2023-02-11T06:01:43;19.40;;;16.07;;
357;SDS011;167;47.558;7.602;2023-02-11T06:04:09;20.50;;;16.00;;
357;SDS011;167;47.558;7.602;2023-02-11T06:06:35;20.77;;;16.67;;
357;SDS011;167;47.558;7.602;2023-02-11T06:09:01;19.30;;;15.93;;
357;SDS011;167;47.558;7.602;2023-02-11T06:11:27;20.50;;;16.43;;
357;SDS011;167;47.558;7.602;2023-02-11T06:13:53;18.20;;;14.80;;
357;SDS011;167;47.558;7.602;2023-02-11T06:16:19;22.73;;;17.60;;
357;SDS011;167;47.558;7.602;2023-02-11T06:18:45;21.77;;;16.57;;
357;SDS011;167;47.558;7.602;2023-02-11T06:21:11;18.00;;;15.13;;
357;SDS011;167;47.558;7.602;2023-02-11T06:23:37;21.03;;;16.07;;
357;SDS011;167;47.558;7.602;2023-02-11T06:26:04;22.43;;;15.40;;
357;SDS011;167;47.558;7.602;2023-02-11T06:28:30;17.27;;;14.90;;
357;SDS011;167;47.558;7.602;2023-02-11T06:30:56;18.10;;;16.20;;
357;SDS011;167;47.558;7.602;2023-02-11T06:33:22;20.27;;;17.63;;
357;SDS011;167;47.558;7.602;2023-02-11T06:35:48;18.67;;;16.63;;
357;SDS011;167;47.558;7.602;2023-02-11T06:38:14;22.10;;;17.50;;
357;SDS011;167;47.558;7.602;2023-02-11T06:40:45;20.70;;;16.30;;
357;SDS011;167;47.558;7.602;2023-02-11T06:43:11;23.33;;;19.30;;
357;SDS011;167;47.558;7.602;2023-02-11T06:45:37;21.93;;;16.20;;
357;SDS011;167;47.558;7.602;2023-02-11T06:48:03;22.93;;;16.27;;
357;SDS011;167;47.558;7.602;2023-02-11T06:50:29;23.93;;;16.17;;
357;SDS011;167;47.558;7.602;2023-02-11T06:52:57;20.33;;;16.10;;
357;SDS011;167;47.558;7.602;2023-02-11T06:55:23;20.13;;;16.13;;
357;SDS011;167;47.558;7.602;2023-02-11T06:57:49;24.00;;;16.27;;
357;SDS011;167;47.558;7.602;2023-02-11T07:00:15;19.30;;;16.37;;
357;SDS011;167;47.558;7.602;2023-02-11T07:02:41;19.80;;;14.30;;
357;SDS011;167;47.558;7.602;2023-02-11T07:05:07;21.47;;;14.33;;
357;SDS011;167;47.558;7.602;2023-02-11T07:07:33;21.90;;;14.77;;
357;SDS011;167;47.558;7.602;2023-02-11T07:09:59;21.73;;;17.50;;
357;SDS011;167;47.558;7.602;2023-02-11T07:12:28;21.93;;;17.77;;
357;SDS011;167;47.558;7.602;2023-02-11T07:14:54;25.27;;;17.67;;
357;SDS011;167;47.558;7.602;2023-02-11T07:17:20;23.17;;;16.63;;
357;SDS011;167;47.558;7.602;2023-02-11T07:19:46;20.80;;;15.97;;
357;SDS011;167;47.558;7.602;2023-02-11T07:22:12;19.70;;;16.37;;
357;SDS011;167;47.558;7.602;2023-02-11T07:24:38;20.63;;;15.47;;
357;SDS011;167;47.558;7.602;2023-02-11T07:27:04;20.73;;;17.20;;
357;SDS011;167;47.558;7.602;2023-02-11T07:29:30;21.33;;;18.00;;
357;SDS011;167;47.558;7.602;2023-02-11T07:31:57;21.60;;;18.60;;
357;SDS011;167;47.558;7.602;2023-02-11T07:34:23;20.30;;;18.10;;
357;SDS011;167;47.558;7.602;2023-02-11T07:36:49;22.50;;;17.27;;
357;SDS011;167;47.558;7.602;2023-02-11T07:39:15;22.80;;;18.93;;
357;SDS011;167;47.558;7.602;2023-02-11T07:41:41;25.27;;;18.50;;
357;SDS011;167;47.558;7.602;2023-02-11T07:44:08;22.93;;;18.27;;
357;SDS011;167;47.558;7.602;2023-02-11T07:46:34;24.97;;;19.27;;
357;SDS011;167;47.558;7.602;2023-02-11T07:49:00;21.23;;;18.93;;
357;SDS011;167;47.558;7.602;2023-02-11T07:51:27;20.90;;;18.40;;
357;SDS011;167;47.558;7.602;2023-02-11T07:53:53;24.47;;;19.43;;
357;SDS011;167;47.558;7.602;2023-02-11T07:56:20;20.23;;;18.03;;
357;SDS011;167;47.558;7.602;2023-02-11T07:58:46;20.97;;;18.70;;
357;SDS011;167;47.558;7.602;2023-02-11T08:01:13;28.83;;;21.00;;
357;SDS011;167;47.558;7.602;2023-02-11T08:03:40;24.63;;;20.70;;
357;SDS011;167;47.558;7.602;2023-02-11T08:06:11;21.40;;;19.13;;
357;SDS011;167;47.558;7.602;2023-02-11T08:08:37;21.87;;;18.70;;
357;SDS011;167;47.558;7.602;2023-02-11T08:13:32;23.43;;;20.97;;
357;SDS011;167;47.558;7.602;2023-02-11T08:15:58;23.33;;;20.87;;
357;SDS011;167;47.558;7.602;2023-02-11T08:18:24;21.40;;;19.10;;
357;SDS011;167;47.558;7.602;2023-02-11T08:20:50;23.27;;;20.83;;
357;SDS011;167;47.558;7.602;2023-02-11T08:23:16;22.23;;;19.97;;
357;SDS011;167;47.558;7.602;2023-02-11T08:25:42;21.63;;;19.40;;
357;SDS011;167;47.558;7.602;2023-02-11T08:28:08;23.07;;;20.60;;
357;SDS011;167;47.558;7.602;2023-02-11T08:30:34;24.90;;;18.83;;
357;SDS011;167;47.558;7.602;2023-02-11T08:33:00;21.80;;;19.60;;
357;SDS011;167;47.558;7.602;2023-02-11T08:35:26;22.70;;;20.47;;
357;SDS011;167;47.558;7.602;2023-02-11T08:37:52;22.77;;;20.53;;
357;SDS011;167;47.558;7.602;2023-02-11T08:40:19;21.77;;;19.57;;
357;SDS011;167;47.558;7.602;2023-02-11T08:42:45;20.93;;;18.73;;
357;SDS011;167;47.558;7.602;2023-02-11T08:45:11;21.70;;;19.50;;
357;SDS011;167;47.558;7.602;2023-02-11T08:47:37;21.93;;;19.70;;
357;SDS011;167;47.558;7.602;2023-02-11T08:50:03;22.07;;;19.77;;
357;SDS011;167;47.558;7.602;2023-02-11T08:52:29;22.13;;;19.93;;
357;SDS011;167;47.558;7.602;2023-02-11T08:54:55;22.57;;;20.37;;
357;SDS011;167;47.558;7.602;2023-02-11T08:57:21;20.37;;;18.40;;
357;SDS011;167;47.558;7.602;2023-02-11T08:59:47;20.37;;;18.30;;
357;SDS011;167;47.558;7.602;2023-02-11T09:02:13;22.37;;;20.10;;
357;SDS011;167;47.558;7.602;2023-02-11T09:04:39;20.90;;;18.97;;
357;SDS011;167;47.558;7.602;2023-02-11T09:07:05;21.20;;;19.17;;
357;SDS011;167;47.558;7.602;2023-02-11T09:09:32;20.23;;;18.33;;
357;SDS011;167;47.558;7.602;2023-02-11T09:11:58;21.67;;;19.47;;
357;SDS011;167;47.558;7.602;2023-02-11T09:14:25;20.67;;;18.60;;
357;SDS011;167;47.558;7.602;2023-02-11T09:16:51;22.43;;;20.23;;
357;SDS011;167;47.558;7.602;2023-02-11T09:19:17;22.37;;;20.23;;
357;SDS011;167;47.558;7.602;2023-02-11T09:21:43;21.53;;;19.30;;
357;SDS011;167;47.558;7.602;2023-02-11T09:24:10;22.90;;;20.70;;
357;SDS011;167;47.558;7.602;2023-02-11T09:26:36;23.67;;;21.37;;
357;SDS011;167;47.558;7.602;2023-02-11T09:29:03;24.43;;;22.13;;
357;SDS011;167;47.558;7.602;2023-02-11T09:31:29;22.87;;;20.57;;
357;SDS011;167;47.558;7.602;2023-02-11T09:33:57;23.83;;;21.73;;
357;SDS011;167;47.558;7.602;2023-02-11T09:36:25;23.80;;;21.40;;
357;SDS011;167;47.558;7.602;2023-02-11T09:38:52;22.67;;;20.47;;
357;SDS011;167;47.558;7.602;2023-02-11T09:41:41;23.17;;;21.00;;
357;SDS011;167;47.558;7.602;2023-02-11T09:44:05;22.57;;;20.60;;
357;SDS011;167;47.558;7.602;2023-02-11T09:46:37;23.17;;;20.73;;
357;SDS011;167;47.558;7.602;2023-02-11T09:49:05;23.03;;;21.13;;
357;SDS011;167;47.558;7.602;2023-02-11T09:51:43;23.87;;;21.87;;
357;SDS011;167;47.558;7.602;2023-02-11T09:54:14;23.97;;;21.87;;
357;SDS011;167;47.558;7.602;2023-02-11T09:56:42;21.23;;;19.43;;
357;SDS011;167;47.558;7.602;2023-02-11T09:59:14;24.03;;;21.93;;
357;SDS011;167;47.558;7.602;2023-02-11T10:01:58;24.27;;;22.17;;
357;SDS011;167;47.558;7.602;2023-02-11T10:06:52;23.10;;;21.00;;
357;SDS011;167;47.558;7.602;2023-02-11T10:22:45;22.57;;;20.70;;
357;SDS011;167;47.558;7.602;2023-02-11T10:25:32;23.50;;;21.20;;
357;SDS011;167;47.558;7.602;2023-02-11T10:27:59;24.27;;;22.17;;
357;SDS011;167;47.558;7.602;2023-02-11T10:30:42;22.90;;;21.00;;
357;SDS011;167;47.558;7.602;2023-02-11T10:33:28;23.40;;;21.53;;
357;SDS011;167;47.558;7.602;2023-02-11T10:35:56;23.20;;;21.27;;
357;SDS011;167;47.558;7.602;2023-02-11T10:38:22;23.40;;;21.20;;
357;SDS011;167;47.558;7.602;2023-02-11T10:40:48;23.73;;;21.73;;
357;SDS011;167;47.558;7.602;2023-02-11T10:43:15;23.67;;;21.80;;
357;SDS011;167;47.558;7.602;2023-02-11T10:45:48;23.23;;;21.23;;
357;SDS011;167;47.558;7.602;2023-02-11T10:53:37;22.27;;;20.27;;
357;SDS011;167;47.558;7.602;2023-02-11T10:56:04;22.50;;;20.60;;
357;SDS011;167;47.558;7.602;2023-02-11T10:58:33;23.30;;;21.20;;
357;SDS011;167;47.558;7.602;2023-02-11T11:01:01;22.27;;;20.60;;
357;SDS011;167;47.558;7.602;2023-02-11T11:03:28;22.17;;;20.37;;
357;SDS011;167;47.558;7.602;2023-02-11T11:06:00;24.27;;;22.33;;
357;SDS011;167;47.558;7.602;2023-02-11T11:08:43;20.10;;;18.50;;
357;SDS011;167;47.558;7.602;2023-02-11T11:11:10;23.00;;;21.10;;
357;SDS011;167;47.558;7.602;2023-02-11T11:13:41;22.03;;;20.30;;
357;SDS011;167;47.558;7.602;2023-02-11T11:18:36;22.30;;;20.50;;
357;SDS011;167;47.558;7.602;2023-02-11T11:21:06;20.37;;;18.77;;
357;SDS011;167;47.558;7.602;2023-02-11T11:23:36;20.37;;;18.83;;
357;SDS011;167;47.558;7.602;2023-02-11T11:28:30;20.17;;;18.67;;
357;SDS011;167;47.558;7.602;2023-02-11T11:30:59;22.47;;;20.67;;
357;SDS011;167;47.558;7.602;2023-02-11T11:33:29;20.20;;;18.70;;
357;SDS011;167;47.558;7.602;2023-02-11T11:35:57;20.97;;;19.20;;
357;SDS011;167;47.558;7.602;2023-02-11T11:38:23;21.63;;;19.83;;
357;SDS011;167;47.558;7.602;2023-02-11T11:43:34;20.80;;;19.13;;
357;SDS011;167;47.558;7.602;2023-02-11T11:46:01;20.60;;;19.00;;
357;SDS011;167;47.558;7.602;2023-02-11T11:50:56;21.17;;;19.57;;
357;SDS011;167;47.558;7.602;2023-02-11T11:53:36;21.03;;;19.40;;
357;SDS011;167;47.558;7.602;2023-02-11T11:56:25;20.77;;;19.27;;
357;SDS011;167;47.558;7.602;2023-02-11T11:58:49;20.77;;;19.27;;
357;SDS011;167;47.558;7.602;2023-02-11T12:09:08;21.63;;;19.93;;
357;SDS011;167;47.558;7.602;2023-02-11T12:17:11;20.93;;;19.13;;
357;SDS011;167;47.558;7.602;2023-02-11T12:22:27;19.90;;;18.20;;
357;SDS011;167;47.558;7.602;2023-02-11T12:27:44;20.00;;;18.33;;
357;SDS011;167;47.558;7.602;2023-02-11T12:35:15;19.90;;;18.40;;
357;SDS011;167;47.558;7.602;2023-02-11T12:40:17;21.50;;;19.80;;
357;SDS011;167;47.558;7.602;2023-02-11T12:42:50;21.77;;;19.93;;
357;SDS011;167;47.558;7.602;2023-02-11T12:55:49;19.97;;;18.43;;
357;SDS011;167;47.558;7.602;2023-02-11T12:58:20;22.50;;;20.60;;
357;SDS011;167;47.558;7.602;2023-02-11T13:00:49;20.57;;;18.67;;
357;SDS011;167;47.558;7.602;2023-02-11T13:03:27;21.00;;;19.20;;
357;SDS011;167;47.558;7.602;2023-02-11T13:05:57;21.83;;;20.07;;
357;SDS011;167;47.558;7.602;2023-02-11T13:08:27;23.00;;;21.10;;
357;SDS011;167;47.558;7.602;2023-02-11T13:10:58;21.90;;;20.10;;
357;SDS011;167;47.558;7.602;2023-02-11T13:15:57;19.87;;;17.97;;
357;SDS011;167;47.558;7.602;2023-02-11T13:26:21;22.27;;;20.37;;
357;SDS011;167;47.558;7.602;2023-02-11T13:31:33;21.40;;;19.50;;
357;SDS011;167;47.558;7.602;2023-02-11T13:33:59;20.13;;;18.30;;
357;SDS011;167;47.558;7.602;2023-02-11T13:36:25;20.67;;;18.87;;
357;SDS011;167;47.558;7.602;2023-02-11T13:38:57;20.43;;;18.73;;
357;SDS011;167;47.558;7.602;2023-02-11T13:41:34;21.03;;;19.20;;
357;SDS011;167;47.558;7.602;2023-02-11T13:46:47;24.30;;;22.03;;
357;SDS011;167;47.558;7.602;2023-02-11T13:49:37;20.87;;;19.07;;
357;SDS011;167;47.558;7.602;2023-02-11T13:52:05;19.80;;;18.20;;
357;SDS011;167;47.558;7.602;2023-02-11T13:54:40;21.50;;;19.40;;
357;SDS011;167;47.558;7.602;2023-02-11T14:10:49;20.70;;;18.80;;
357;SDS011;167;47.558;7.602;2023-02-11T14:13:31;20.77;;;18.70;;
357;SDS011;167;47.558;7.602;2023-02-11T14:21:09;18.43;;;16.80;;
357;SDS011;167;47.558;7.602;2023-02-11T14:23:37;20.73;;;18.70;;
357;SDS011;167;47.558;7.602;2023-02-11T14:26:20;19.63;;;17.87;;
357;SDS011;167;47.558;7.602;2023-02-11T14:28:51;20.13;;;18.03;;
357;SDS011;167;47.558;7.602;2023-02-11T14:31:25;19.00;;;17.10;;
357;SDS011;167;47.558;7.602;2023-02-11T14:33:57;18.77;;;16.97;;
357;SDS011;167;47.558;7.602;2023-02-11T14:36:37;19.90;;;17.93;;
357;SDS011;167;47.558;7.602;2023-02-11T14:39:17;19.37;;;16.63;;
357;SDS011;167;47.558;7.602;2023-02-11T14:41:45;18.07;;;16.30;;
357;SDS011;167;47.558;7.602;2023-02-11T14:44:17;17.27;;;15.57;;
357;SDS011;167;47.558;7.602;2023-02-11T14:46:44;20.37;;;17.93;;
357;SDS011;167;47.558;7.602;2023-02-11T14:49:12;20.30;;;17.77;;
357;SDS011;167;47.558;7.602;2023-02-11T14:51:43;18.77;;;16.77;;
357;SDS011;167;47.558;7.602;2023-02-11T14:54:18;18.70;;;16.80;;
357;SDS011;167;47.558;7.602;2023-02-11T14:57:03;18.60;;;16.70;;
357;SDS011;167;47.558;7.602;2023-02-11T14:59:29;18.60;;;16.73;;
357;SDS011;167;47.558;7.602;2023-02-11T15:01:55;19.10;;;17.23;;
357;SDS011;167;47.558;7.602;2023-02-11T15:04:23;20.67;;;17.60;;
357;SDS011;167;47.558;7.602;2023-02-11T15:06:49;18.30;;;16.50;;
357;SDS011;167;47.558;7.602;2023-02-11T15:09:30;20.57;;;17.80;;
357;SDS011;167;47.558;7.602;2023-02-11T15:11:57;18.30;;;16.40;;
357;SDS011;167;47.558;7.602;2023-02-11T15:16:50;18.27;;;16.37;;
357;SDS011;167;47.558;7.602;2023-02-11T15:19:22;17.57;;;14.70;;
357;SDS011;167;47.558;7.602;2023-02-11T15:21:49;22.97;;;16.97;;
357;SDS011;167;47.558;7.602;2023-02-11T15:24:29;19.07;;;17.07;;
357;SDS011;167;47.558;7.602;2023-02-11T15:26:59;16.50;;;14.70;;
357;SDS011;167;47.558;7.602;2023-02-11T15:29:39;16.73;;;14.50;;
357;SDS011;167;47.558;7.602;2023-02-11T15:34:34;17.67;;;14.20;;
357;SDS011;167;47.558;7.602;2023-02-11T15:37:01;18.20;;;15.07;;
357;SDS011;167;47.558;7.602;2023-02-11T15:39:37;20.57;;;15.63;;
357;SDS011;167;47.558;7.602;2023-02-11T15:42:14;17.70;;;15.17;;
357;SDS011;167;47.558;7.602;2023-02-11T15:44:40;17.13;;;15.10;;
357;SDS011;167;47.558;7.602;2023-02-11T15:47:09;15.93;;;14.27;;
357;SDS011;167;47.558;7.602;2023-02-11T15:49:36;18.20;;;14.77;;
357;SDS011;167;47.558;7.602;2023-02-11T15:52:02;14.97;;;13.33;;
357;SDS011;167;47.558;7.602;2023-02-11T15:54:29;19.97;;;15.17;;
357;SDS011;167;47.558;7.602;2023-02-11T15:56:59;17.03;;;15.10;;
357;SDS011;167;47.558;7.602;2023-02-11T15:59:37;14.07;;;12.57;;
357;SDS011;167;47.558;7.602;2023-02-11T16:04:48;14.53;;;12.90;;
357;SDS011;167;47.558;7.602;2023-02-11T16:09:59;17.43;;;13.87;;
357;SDS011;167;47.558;7.602;2023-02-11T16:12:25;15.80;;;14.03;;
357;SDS011;167;47.558;7.602;2023-02-11T16:14:51;16.53;;;13.60;;
357;SDS011;167;47.558;7.602;2023-02-11T16:17:25;16.87;;;12.93;;
357;SDS011;167;47.558;7.602;2023-02-11T16:19:52;14.87;;;12.63;;
357;SDS011;167;47.558;7.602;2023-02-11T16:22:22;15.40;;;13.90;;
357;SDS011;167;47.558;7.602;2023-02-11T16:24:49;17.10;;;14.30;;
357;SDS011;167;47.558;7.602;2023-02-11T16:27:20;15.63;;;13.43;;
357;SDS011;167;47.558;7.602;2023-02-11T16:29:47;15.73;;;13.63;;
357;SDS011;167;47.558;7.602;2023-02-11T16:32:23;13.40;;;12.00;;
357;SDS011;167;47.558;7.602;2023-02-11T16:34:49;14.30;;;12.83;;
357;SDS011;167;47.558;7.602;2023-02-11T16:37:15;14.27;;;12.60;;
357;SDS011;167;47.558;7.602;2023-02-11T16:39:41;14.73;;;13.10;;
357;SDS011;167;47.558;7.602;2023-02-11T16:42:08;16.37;;;13.53;;
357;SDS011;167;47.558;7.602;2023-02-11T16:44:34;14.90;;;13.20;;
357;SDS011;167;47.558;7.602;2023-02-11T16:47:01;16.10;;;14.00;;
357;SDS011;167;47.558;7.602;2023-02-11T16:49:45;14.77;;;13.30;;
357;SDS011;167;47.558;7.602;2023-02-11T16:52:12;16.53;;;13.23;;
357;SDS011;167;47.558;7.602;2023-02-11T16:54:39;14.60;;;13.10;;
357;SDS011;167;47.558;7.602;2023-02-11T16:57:08;16.93;;;13.90;;
357;SDS011;167;47.558;7.602;2023-02-11T16:59:35;16.60;;;13.17;;
357;SDS011;167;47.558;7.602;2023-02-11T17:02:01;15.20;;;13.60;;
357;SDS011;167;47.558;7.602;2023-02-11T17:04:28;16.40;;;13.53;;
357;SDS011;167;47.558;7.602;2023-02-11T17:06:55;15.13;;;13.60;;
357;SDS011;167;47.558;7.602;2023-02-11T17:09:22;15.93;;;14.13;;
357;SDS011;167;47.558;7.602;2023-02-11T17:11:48;15.70;;;14.00;;
357;SDS011;167;47.558;7.602;2023-02-11T17:14:18;14.77;;;13.17;;
357;SDS011;167;47.558;7.602;2023-02-11T17:16:45;18.30;;;13.40;;
357;SDS011;167;47.558;7.602;2023-02-11T17:19:12;15.27;;;13.57;;
357;SDS011;167;47.558;7.602;2023-02-11T17:21:41;17.17;;;13.60;;
357;SDS011;167;47.558;7.602;2023-02-11T17:24:08;14.80;;;13.30;;
357;SDS011;167;47.558;7.602;2023-02-11T17:26:34;14.20;;;12.70;;
357;SDS011;167;47.558;7.602;2023-02-11T17:29:00;17.57;;;15.60;;
357;SDS011;167;47.558;7.602;2023-02-11T17:31:26;26.27;;;21.60;;
357;SDS011;167;47.558;7.602;2023-02-11T17:33:52;18.60;;;16.23;;
357;SDS011;167;47.558;7.602;2023-02-11T17:36:18;19.07;;;15.27;;
357;SDS011;167;47.558;7.602;2023-02-11T17:38:44;21.43;;;19.07;;
357;SDS011;167;47.558;7.602;2023-02-11T17:41:10;35.63;;;26.03;;
357;SDS011;167;47.558;7.602;2023-02-11T17:43:36;33.77;;;25.90;;
357;SDS011;167;47.558;7.602;2023-02-11T17:46:06;31.90;;;22.00;;
357;SDS011;167;47.558;7.602;2023-02-11T17:48:32;40.30;;;29.37;;
357;SDS011;167;47.558;7.602;2023-02-11T17:50:58;29.47;;;24.80;;